Hlavní strana
METAR-TAF:

METAR-TAF

Letiště :

Letecká základna

Niederstetten, Německo

zeměpisná šířka: 49-24N, zeměpisná délka: 009-58E, výška: 468 m

Aktuální stav počasí

Zpráva byla vytvořena před 31 minutami, v 17:20 UTC
Východní vítr 3 kt
Teplota -3°C
Vlhkost vzduchu 93%
Tlak 1018 hPa
Viditelnost 10 km a více
Skoro jasno ve výšce 4000 ft
Oblačno až skoro zataženo ve výšce 19000 ft

METAR: ETHN 181720Z 09003KT 9999 FEW040 BKN190 M03/M04 Q1018 BLU

Čas: 18:51 (17:51 UTC)

Předpověď počasí

Zpráva byla vytvořena před 7 hodinami a 15 minutami, v 10:36 UTC
Předpověď platná od 18 v 09 UTC do 18 v 18 UTC
Západní vítr 10 kt
Viditelnost 10 km a více
Oblačno až skoro zataženo ve výšce 1400 ft
Změna
od 18 v 09 UTC do 18 v 11 UTC
Západoseverozápadní vítr 10 kt
Viditelnost 10 km a více
Polojasno ve výšce 2000 ft

TAF: ETHN 181036Z 1809/1818 28010KT 9999 NSW BKN014 BECMG 1809/1811 30010KT 9999 NSW SCT020 CANCEL 1100Z

Stav a předpovědi počasí z více než 4 000 letišť (zprávy METAR a TAF).

Červené a žluté tečky na mapě představují dostupné meteorologické stanice.

Když kurzor umístíte na tečku, zobrazí se název stanice.

Pak kliknutím zobrazíte stav a předpověď počasí.

Chcete-li změnit mapu, kliknutím na zelené tlačítko se znaménkem +mapu přiblížíte, kliknutím na zelené tlačítko se znaménkem – mapu oddálíte a kliknutím na zelené šipky přejdete na sousední mapy.


METAR-TAF: